sensor_id;sensor_type;location;lat;lon;timestamp;pressure;altitude;pressure_sealevel;temperature
77355;BMP280;66422;51.202;19.936;2023-08-30T00:09:34;98278.27;;;19.41
77355;BMP280;66422;51.202;19.936;2023-08-30T00:24:56;98286.05;;;19.31
77355;BMP280;66422;51.202;19.936;2023-08-30T00:40:15;98246.70;;;19.50
77355;BMP280;66422;51.202;19.936;2023-08-30T00:55:42;98261.34;;;19.98
77355;BMP280;66422;51.202;19.936;2023-08-30T01:26:44;98244.88;;;19.95
77355;BMP280;66422;51.202;19.936;2023-08-30T01:42:05;98246.02;;;19.77
77355;BMP280;66422;51.202;19.936;2023-08-30T01:57:25;98220.02;;;19.09
77355;BMP280;66422;51.202;19.936;2023-08-30T02:12:50;98233.80;;;19.60
77355;BMP280;66422;51.202;19.936;2023-08-30T02:28:13;98215.88;;;19.46
77355;BMP280;66422;51.202;19.936;2023-08-30T02:43:34;98214.54;;;19.91
77355;BMP280;66422;51.202;19.936;2023-08-30T02:58:56;98202.21;;;19.90
77355;BMP280;66422;51.202;19.936;2023-08-30T03:14:17;98198.70;;;19.71
77355;BMP280;66422;51.202;19.936;2023-08-30T03:29:36;98214.15;;;19.92
77355;BMP280;66422;51.202;19.936;2023-08-30T03:44:58;98215.77;;;20.00
77355;BMP280;66422;51.202;19.936;2023-08-30T04:00:48;98223.02;;;19.96
77355;BMP280;66422;51.202;19.936;2023-08-30T04:16:10;98223.54;;;20.17
77355;BMP280;66422;51.202;19.936;2023-08-30T04:31:29;98220.88;;;19.87
77355;BMP280;66422;51.202;19.936;2023-08-30T04:46:59;98220.09;;;19.06
77355;BMP280;66422;51.202;19.936;2023-08-30T05:02:23;98220.79;;;18.77
77355;BMP280;66422;51.202;19.936;2023-08-30T05:17:53;98215.02;;;18.66
77355;BMP280;66422;51.202;19.936;2023-08-30T05:33:13;98224.62;;;18.81
77355;BMP280;66422;51.202;19.936;2023-08-30T05:48:49;98221.34;;;18.62
77355;BMP280;66422;51.202;19.936;2023-08-30T06:04:09;98226.60;;;18.51
77355;BMP280;66422;51.202;19.936;2023-08-30T06:19:28;98232.41;;;18.80
77355;BMP280;66422;51.202;19.936;2023-08-30T06:34:48;98245.98;;;19.22
77355;BMP280;66422;51.202;19.936;2023-08-30T06:50:08;98273.34;;;19.20
77355;BMP280;66422;51.202;19.936;2023-08-30T07:05:29;98270.94;;;18.88
77355;BMP280;66422;51.202;19.936;2023-08-30T07:20:50;98269.21;;;19.03
77355;BMP280;66422;51.202;19.936;2023-08-30T07:36:10;98275.96;;;18.72
77355;BMP280;66422;51.202;19.936;2023-08-30T07:51:31;98286.54;;;18.28
77355;BMP280;66422;51.202;19.936;2023-08-30T08:06:51;98309.13;;;18.93
77355;BMP280;66422;51.202;19.936;2023-08-30T08:22:11;98302.70;;;18.61
77355;BMP280;66422;51.202;19.936;2023-08-30T08:37:31;98307.11;;;18.97
77355;BMP280;66422;51.202;19.936;2023-08-30T08:52:52;98313.39;;;19.40
77355;BMP280;66422;51.202;19.936;2023-08-30T09:08:13;98321.42;;;19.15
77355;BMP280;66422;51.202;19.936;2023-08-30T09:23:35;98340.15;;;18.77
77355;BMP280;66422;51.202;19.936;2023-08-30T09:38:56;98346.25;;;19.27
77355;BMP280;66422;51.202;19.936;2023-08-30T09:54:20;98350.14;;;19.04
77355;BMP280;66422;51.202;19.936;2023-08-30T10:09:41;98352.30;;;19.16
77355;BMP280;66422;51.202;19.936;2023-08-30T10:25:08;98363.30;;;19.25
77355;BMP280;66422;51.202;19.936;2023-08-30T10:40:29;98360.23;;;19.78
77355;BMP280;66422;51.202;19.936;2023-08-30T10:56:10;98368.92;;;19.04
77355;BMP280;66422;51.202;19.936;2023-08-30T11:11:30;98370.67;;;19.72
77355;BMP280;66422;51.202;19.936;2023-08-30T11:26:53;98385.64;;;19.80
77355;BMP280;66422;51.202;19.936;2023-08-30T11:42:13;98389.50;;;19.64
77355;BMP280;66422;51.202;19.936;2023-08-30T11:57:38;98381.40;;;19.93
77355;BMP280;66422;51.202;19.936;2023-08-30T12:12:58;98364.66;;;19.68
77355;BMP280;66422;51.202;19.936;2023-08-30T12:28:17;98358.67;;;20.22
77355;BMP280;66422;51.202;19.936;2023-08-30T12:43:37;98359.27;;;21.06
77355;BMP280;66422;51.202;19.936;2023-08-30T12:58:56;98345.06;;;21.06
77355;BMP280;66422;51.202;19.936;2023-08-30T13:14:16;98363.73;;;21.59
77355;BMP280;66422;51.202;19.936;2023-08-30T13:29:36;98351.64;;;21.83
77355;BMP280;66422;51.202;19.936;2023-08-30T13:44:56;98344.63;;;21.58
77355;BMP280;66422;51.202;19.936;2023-08-30T14:00:16;98342.73;;;21.71
77355;BMP280;66422;51.202;19.936;2023-08-30T14:15:35;98344.52;;;21.45
77355;BMP280;66422;51.202;19.936;2023-08-30T14:30:55;98337.83;;;20.79
77355;BMP280;66422;51.202;19.936;2023-08-30T14:46:14;98342.82;;;20.36
77355;BMP280;66422;51.202;19.936;2023-08-30T15:01:35;98351.02;;;20.34
77355;BMP280;66422;51.202;19.936;2023-08-30T15:16:55;98382.04;;;20.14
77355;BMP280;66422;51.202;19.936;2023-08-30T15:32:14;98396.52;;;20.01
77355;BMP280;66422;51.202;19.936;2023-08-30T15:47:34;98402.75;;;20.07
77355;BMP280;66422;51.202;19.936;2023-08-30T16:02:54;98405.97;;;19.85
77355;BMP280;66422;51.202;19.936;2023-08-30T16:18:17;98408.73;;;19.87
77355;BMP280;66422;51.202;19.936;2023-08-30T16:33:37;98390.40;;;19.77
77355;BMP280;66422;51.202;19.936;2023-08-30T16:48:58;98389.35;;;19.84
77355;BMP280;66422;51.202;19.936;2023-08-30T17:04:18;98402.58;;;19.44
77355;BMP280;66422;51.202;19.936;2023-08-30T17:19:37;98418.01;;;18.91
77355;BMP280;66422;51.202;19.936;2023-08-30T17:34:57;98420.04;;;18.91
77355;BMP280;66422;51.202;19.936;2023-08-30T17:50:16;98409.20;;;19.10
77355;BMP280;66422;51.202;19.936;2023-08-30T18:05:36;98410.25;;;18.56
77355;BMP280;66422;51.202;19.936;2023-08-30T18:20:56;98418.05;;;18.70
77355;BMP280;66422;51.202;19.936;2023-08-30T18:36:15;98420.91;;;18.61
77355;BMP280;66422;51.202;19.936;2023-08-30T18:51:35;98429.55;;;18.57
77355;BMP280;66422;51.202;19.936;2023-08-30T19:06:55;98440.92;;;18.45
77355;BMP280;66422;51.202;19.936;2023-08-30T19:22:15;98450.21;;;18.40
77355;BMP280;66422;51.202;19.936;2023-08-30T19:37:36;98464.19;;;18.29
77355;BMP280;66422;51.202;19.936;2023-08-30T19:52:55;98460.42;;;18.37
77355;BMP280;66422;51.202;19.936;2023-08-30T20:08:19;98459.86;;;18.22
77355;BMP280;66422;51.202;19.936;2023-08-30T20:23:39;98460.79;;;18.24
77355;BMP280;66422;51.202;19.936;2023-08-30T20:38:59;98483.90;;;18.31
77355;BMP280;66422;51.202;19.936;2023-08-30T20:54:19;98503.59;;;18.40
77355;BMP280;66422;51.202;19.936;2023-08-30T21:09:38;98501.08;;;18.37
77355;BMP280;66422;51.202;19.936;2023-08-30T21:24:58;98515.66;;;18.23
77355;BMP280;66422;51.202;19.936;2023-08-30T21:40:17;98519.71;;;17.81
77355;BMP280;66422;51.202;19.936;2023-08-30T21:55:37;98525.40;;;17.76
77355;BMP280;66422;51.202;19.936;2023-08-30T22:10:58;98515.74;;;17.56
77355;BMP280;66422;51.202;19.936;2023-08-30T22:26:17;98525.23;;;17.67
77355;BMP280;66422;51.202;19.936;2023-08-30T22:41:37;98530.77;;;17.72
77355;BMP280;66422;51.202;19.936;2023-08-30T22:56:57;98536.73;;;17.98
77355;BMP280;66422;51.202;19.936;2023-08-30T23:12:17;98535.19;;;17.88
77355;BMP280;66422;51.202;19.936;2023-08-30T23:27:36;98533.95;;;17.83
77355;BMP280;66422;51.202;19.936;2023-08-30T23:42:57;98530.67;;;17.80
77355;BMP280;66422;51.202;19.936;2023-08-30T23:58:17;98534.50;;;17.70
